Terminal Aerodrome Forecast
Issued by NWS Brownsville, TX

Home | Current Version | Previous Version | Text Only | Print | Product List | Glossary On
Versions: 1 2 3 4 5 6 7 8 9 10 11
000
FTUS44 KBRO 281300 AAA
TAFHRL
TAF AMD
KHRL 281335Z 2814/2912 33012G19KT 5SM RA BR SCT009 OVC022
     FM281900 34010G15KT P6SM OVC015
     FM282300 30010KT P6SM BKN025
     FM290300 35007KT P6SM SCT025=

USA.gov is the U.S. government's official web portal to all federal, state and local government web resources and services.